Edenton, North Carolina
Current Conditions -  °F | °C
As of 9:15 AM on Saturday 01 Nov 2014 (Local Time) from KEDE Reporting Station
Clear Clear  
Wind Chill: 42°   Ceiling: Unl
Heat Index: 46°   Visibility: 10mi
Dew Point: 43°   Wind: 9mph
Humidity: 87%   Direction: 360°N
Pressure: 29.71"   Gusts: NA
Location:  36.07°N, 76.6°W
Report Text: KEDE 011315Z AUTO 36008KT 10SM CLR 08/06 A2971 RMK AO2 T00800060
Loading
Personal Weather Stations






























Interactive Weather Map
Tropical Storm Tracking
New forecast layout! Learn more

10-Day Weather Forecast

Advertisements
Track Severe Weather on mobile